Time;durP1;ratioP1;P1;durP2;ratioP2;P2;SDS_P1;SDS_P2;PMS_P1;PMS_P2;Temp;Humidity;BMP_temperature;BMP_pressure;BME280_temperature;BME280_humidity;BME280_pressure;Samples;Min_cycle;Max_cycle;Signal;HPM_P1;HPM_P2
2020/12/25 00:01:20;;;;;;;37.58;22.42;;;;;;;21.17;44.98;100261.16;4997272;28;20113;-75
2020/12/25 00:03:47;;;;;;;37.40;22.38;;;;;;;21.16;45.17;100262.06;4999676;28;20042;-78
2020/12/25 00:06:12;;;;;;;38.45;23.83;;;;;;;21.15;44.95;100265.59;5004738;28;20506;-78
2020/12/25 00:08:38;;;;;;;34.50;19.52;;;;;;;21.14;44.95;100270.03;5018676;28;20050;-74
2020/12/25 00:11:03;;;;;;;35.75;19.92;;;;;;;21.16;44.73;100271.75;4993112;28;20057;-76
2020/12/25 00:13:29;;;;;;;34.45;19.25;;;;;;;21.14;45.06;100267.38;4994184;28;20042;-75
2020/12/25 00:15:55;;;;;;;34.92;19.30;;;;;;;21.11;45.02;100270.09;4994310;28;20030;-74
2020/12/25 00:18:20;;;;;;;31.42;17.83;;;;;;;21.12;45.02;100271.81;4993805;28;20042;-74
2020/12/25 00:20:48;;;;;;;32.47;18.13;;;;;;;21.11;45.19;100285.03;4993911;28;20058;-74
2020/12/25 00:23:14;;;;;;;32.08;18.30;;;;;;;21.08;44.91;100280.69;4994130;28;20038;-76
2020/12/25 00:25:39;;;;;;;26.25;16.02;;;;;;;21.09;45.05;100285.06;5013460;28;20068;-75
2020/12/25 00:28:05;;;;;;;30.48;17.80;;;;;;;21.09;44.97;100281.59;5013482;28;20034;-73
2020/12/25 00:30:30;;;;;;;25.70;16.05;;;;;;;21.09;44.91;100277.16;5013550;28;20045;-74
2020/12/25 00:32:55;;;;;;;26.95;17.08;;;;;;;21.09;44.90;100284.22;5013404;28;20073;-75
2020/12/25 00:35:20;;;;;;;28.90;16.05;;;;;;;21.07;44.93;100283.38;5013585;28;20041;-76
2020/12/25 00:37:46;;;;;;;30.55;14.40;;;;;;;21.08;44.86;100283.34;5013380;28;20110;-75
2020/12/25 00:40:11;;;;;;;24.80;15.05;;;;;;;21.06;44.96;100279.00;5012231;28;20495;-75
2020/12/25 00:42:37;;;;;;;26.58;13.57;;;;;;;21.04;44.94;100279.03;5013212;28;20095;-74
2020/12/25 00:45:04;;;;;;;24.33;14.32;;;;;;;21.02;45.21;100287.88;5003782;28;20042;-73
2020/12/25 00:47:29;;;;;;;24.60;14.32;;;;;;;20.98;44.97;100287.94;4992362;28;20101;-72
2020/12/25 00:49:54;;;;;;;24.52;13.30;;;;;;;20.99;44.95;100289.69;4993283;28;20196;-77
2020/12/25 00:52:23;;;;;;;22.55;13.50;;;;;;;20.98;44.87;100305.53;5004753;28;20041;-73
2020/12/25 00:54:49;;;;;;;21.77;13.75;;;;;;;20.94;45.05;100298.59;5012997;28;20069;-73
2020/12/25 00:57:14;;;;;;;20.65;12.10;;;;;;;20.95;44.96;100295.91;5012929;28;20030;-73
2020/12/25 00:59:40;;;;;;;19.48;12.30;;;;;;;20.95;44.98;100305.59;5013146;28;20034;-73
2020/12/25 01:02:05;;;;;;;21.83;12.35;;;;;;;20.90;44.99;100303.09;5011613;28;20026;-75
2020/12/25 01:04:30;;;;;;;19.45;11.60;;;;;;;20.91;45.08;100304.81;5013067;28;20061;-73
2020/12/25 01:06:56;;;;;;;20.40;12.10;;;;;;;20.94;45.00;100302.09;5012566;28;20049;-72
2020/12/25 01:09:24;;;;;;;19.73;11.52;;;;;;;20.95;44.92;100303.81;5012946;28;20061;-73
2020/12/25 01:11:49;;;;;;;19.20;10.85;;;;;;;20.97;44.63;100304.66;5011506;28;20087;-74
2020/12/25 01:14:15;;;;;;;18.90;10.52;;;;;;;20.97;44.83;100306.44;5000490;28;20038;-75
2020/12/25 01:16:40;;;;;;;15.68;9.45;;;;;;;20.94;44.78;100317.88;4991888;28;20069;-75
2020/12/25 01:19:06;;;;;;;16.98;10.25;;;;;;;20.93;44.84;100317.94;4992351;28;20037;-75
2020/12/25 01:21:31;;;;;;;17.67;10.82;;;;;;;20.91;44.75;100319.75;5006732;28;20026;-75
2020/12/25 01:23:57;;;;;;;18.85;9.77;;;;;;;20.94;44.84;100328.44;5011546;28;20022;-74
2020/12/25 01:26:22;;;;;;;17.67;9.65;;;;;;;20.89;44.89;100324.16;5012296;28;20034;-74
2020/12/25 01:28:49;;;;;;;15.88;9.98;;;;;;;20.84;44.96;100334.81;5012467;28;20025;-75
2020/12/25 01:31:14;;;;;;;16.55;9.25;;;;;;;20.80;45.04;100335.78;5011199;28;20040;-75
2020/12/25 01:33:39;;;;;;;16.55;8.73;;;;;;;20.82;44.75;100336.59;5012577;28;20681;-75
2020/12/25 01:36:05;;;;;;;16.00;8.82;;;;;;;20.81;44.93;100337.50;5012430;28;20053;-78
2020/12/25 01:38:31;;;;;;;15.07;8.38;;;;;;;20.79;45.05;100341.94;5012039;28;20049;-74
2020/12/25 01:40:56;;;;;;;14.27;7.80;;;;;;;20.78;44.83;100354.25;5012017;28;20475;-73
2020/12/25 01:43:22;;;;;;;12.30;7.45;;;;;;;20.80;44.89;100359.47;5012376;28;20111;-75
2020/12/25 01:45:47;;;;;;;15.18;8.18;;;;;;;20.79;44.92;100365.63;4996599;28;20809;-75
2020/12/25 01:48:13;;;;;;;11.95;7.05;;;;;;;20.80;44.89;100364.75;4992184;28;20041;-75
2020/12/25 01:50:38;;;;;;;11.60;7.40;;;;;;;20.78;44.89;100379.75;4992840;28;20042;-74
2020/12/25 01:53:08;;;;;;;15.65;8.63;;;;;;;20.76;45.08;100379.75;5009578;28;20414;-76
2020/12/25 01:55:33;;;;;;;13.75;7.60;;;;;;;20.77;45.00;100381.50;5011505;28;20076;-74
2020/12/25 01:58:00;;;;;;;13.65;7.45;;;;;;;20.80;44.73;100384.06;5012015;28;20069;-74
2020/12/25 02:00:28;;;;;;;11.48;6.90;;;;;;;20.80;44.74;100389.31;5012101;28;20526;-77
2020/12/25 02:02:53;;;;;;;12.50;7.75;;;;;;;20.84;44.71;100396.28;5010636;28;20042;-75
2020/12/25 02:05:20;;;;;;;10.68;6.03;;;;;;;20.87;44.48;100391.81;5011937;28;20057;-80
2020/12/25 02:07:45;;;;;;;11.15;6.20;;;;;;;20.88;44.32;100394.44;5011868;28;20445;-74
2020/12/25 02:10:11;;;;;;;10.57;6.28;;;;;;;20.83;44.59;100397.19;5010380;28;20038;-74
2020/12/25 02:12:37;;;;;;;13.57;6.53;;;;;;;20.81;44.64;100392.81;5012025;28;20077;-74
2020/12/25 02:15:06;;;;;;;9.93;6.28;;;;;;;20.75;45.03;100399.09;4995015;28;20058;-74
2020/12/25 02:17:31;;;;;;;11.60;6.70;;;;;;;20.75;44.72;100396.44;4995739;28;20113;-73
2020/12/25 02:19:57;;;;;;;10.07;5.82;;;;;;;20.76;44.77;100392.91;5001137;28;20077;-74
2020/12/25 02:22:22;;;;;;;11.60;6.18;;;;;;;20.81;44.48;100414.78;5025169;28;20034;-74
2020/12/25 02:24:48;;;;;;;9.85;5.93;;;;;;;20.79;44.60;100411.28;5013581;28;20033;-75
2020/12/25 02:27:13;;;;;;;9.63;5.80;;;;;;;20.82;44.57;100413.88;5014269;28;20125;-75
2020/12/25 02:29:40;;;;;;;9.40;5.88;;;;;;;20.83;44.67;100415.63;5015684;28;20037;-75
2020/12/25 02:32:05;;;;;;;10.70;5.78;;;;;;;20.79;44.42;100413.94;5015771;28;20095;-73
2020/12/25 02:34:30;;;;;;;9.75;5.28;;;;;;;20.79;44.58;100416.56;5015908;28;20109;-74
2020/12/25 02:36:56;;;;;;;10.73;5.07;;;;;;;20.77;44.53;100428.88;5015132;28;20069;-79
2020/12/25 02:39:21;;;;;;;10.70;5.20;;;;;;;20.79;44.63;100428.84;5015552;28;20210;-74
2020/12/25 02:41:47;;;;;;;6.80;4.30;;;;;;;20.82;44.38;100428.78;5015665;28;20061;-74
2020/12/25 02:44:14;;;;;;;8.25;4.60;;;;;;;20.81;44.41;100427.94;5012358;28;20491;-75
2020/12/25 02:46:40;;;;;;;7.68;4.97;;;;;;;20.81;44.51;100421.78;4995927;28;20122;-75
2020/12/25 02:49:05;;;;;;;8.18;4.50;;;;;;;20.75;44.57;100438.59;4995472;28;20030;-76
2020/12/25 02:51:31;;;;;;;8.65;5.10;;;;;;;20.71;44.53;100436.03;4999963;28;20026;-75
2020/12/25 02:53:56;;;;;;;6.57;4.80;;;;;;;20.68;44.68;100440.44;5015583;28;20104;-73
2020/12/25 02:56:21;;;;;;;9.32;4.75;;;;;;;20.69;44.52;100446.59;5013793;28;20036;-75
2020/12/25 02:58:47;;;;;;;7.28;4.20;;;;;;;20.68;44.67;100440.44;5015263;28;20065;-78
2020/12/25 03:01:14;;;;;;;8.95;4.60;;;;;;;20.67;44.55;100446.59;5014986;28;20120;-74
2020/12/25 03:03:39;;;;;;;9.50;4.25;;;;;;;20.66;44.73;100454.53;5015248;28;20044;-72
2020/12/25 03:06:06;;;;;;;8.10;4.38;;;;;;;20.67;44.52;100456.28;5013251;28;20049;-76
2020/12/25 03:08:32;;;;;;;8.27;4.03;;;;;;;20.67;44.55;100461.56;5013942;28;20065;-75
2020/12/25 03:10:57;;;;;;;7.65;3.63;;;;;;;20.68;44.61;100463.28;5015173;28;20064;-75
2020/12/25 03:13:23;;;;;;;6.55;3.60;;;;;;;20.66;44.35;100463.31;5010333;28;20468;-73
2020/12/25 03:15:48;;;;;;;6.88;3.78;;;;;;;20.64;44.55;100465.09;4995588;28;20455;-75
2020/12/25 03:18:14;;;;;;;5.80;3.60;;;;;;;20.71;44.53;100467.63;4995009;28;20038;-76
2020/12/25 03:20:39;;;;;;;7.63;3.33;;;;;;;20.71;44.25;100467.63;5002710;28;20042;-75
2020/12/25 03:23:05;;;;;;;10.68;3.63;;;;;;;20.75;44.16;100466.66;5014903;28;20061;-74
2020/12/25 03:25:30;;;;;;;6.90;3.30;;;;;;;20.74;44.38;100470.19;5014723;28;20034;-73
2020/12/25 03:27:56;;;;;;;7.68;3.08;;;;;;;20.69;44.36;100475.56;5014795;28;20438;-73
2020/12/25 03:30:21;;;;;;;7.63;3.13;;;;;;;20.73;44.30;100485.13;5014801;28;20034;-74
2020/12/25 03:32:46;;;;;;;6.55;3.33;;;;;;;20.73;44.30;100479.84;5014465;28;20030;-75
2020/12/25 03:35:12;;;;;;;7.22;3.83;;;;;;;20.68;44.25;100479.94;5014415;28;20042;-73
2020/12/25 03:37:37;;;;;;;5.25;2.83;;;;;;;20.73;44.21;100486.91;5013709;28;20026;-75
2020/12/25 03:40:04;;;;;;;7.68;4.18;;;;;;;20.73;44.30;100486.91;5013320;28;20030;-74
2020/12/25 03:42:30;;;;;;;5.20;3.20;;;;;;;20.73;44.19;100498.28;5014567;28;20049;-74
2020/12/25 03:44:55;;;;;;;7.85;2.95;;;;;;;20.76;44.25;100493.00;5005730;28;20027;-74
2020/12/25 03:47:23;;;;;;;5.55;2.97;;;;;;;20.74;44.18;100500.03;4994736;28;20042;-75
2020/12/25 03:49:50;;;;;;;5.72;2.88;;;;;;;20.74;44.17;100496.53;4994216;28;20034;-74
2020/12/25 03:52:15;;;;;;;6.55;3.13;;;;;;;20.71;44.25;100488.69;5005290;28;20034;-74
2020/12/25 03:54:40;;;;;;;5.20;2.90;;;;;;;20.69;44.19;100489.59;5014344;28;20052;-73
2020/12/25 03:57:06;;;;;;;5.03;2.65;;;;;;;20.71;44.24;100499.22;5014009;28;20033;-74
2020/12/25 03:59:31;;;;;;;8.38;2.80;;;;;;;20.71;44.21;100497.44;5014281;28;20052;-76
2020/12/25 04:01:57;;;;;;;5.18;2.28;;;;;;;20.73;44.25;100494.78;5027939;28;20052;-73
2020/12/25 04:04:22;;;;;;;6.32;2.60;;;;;;;20.68;44.26;100495.75;5033784;28;20034;-75
2020/12/25 04:06:47;;;;;;;6.63;3.10;;;;;;;20.66;44.24;100502.78;5033459;28;20072;-73
2020/12/25 04:09:13;;;;;;;6.30;2.60;;;;;;;20.67;44.23;100499.28;5049314;28;20083;-75
2020/12/25 04:11:38;;;;;;;3.90;2.53;;;;;;;20.65;44.32;100505.47;5033857;28;20048;-73
2020/12/25 04:14:03;;;;;;;4.30;2.22;;;;;;;20.64;44.41;100517.75;5013584;28;20042;-73
2020/12/25 04:16:30;;;;;;;4.72;2.58;;;;;;;20.61;44.34;100522.22;4994335;28;20045;-73
2020/12/25 04:18:56;;;;;;;4.13;2.33;;;;;;;20.61;44.31;100522.22;4993604;28;20031;-74
2020/12/25 04:21:21;;;;;;;4.63;2.30;;;;;;;20.58;44.39;100525.78;5007534;28;20057;-73
2020/12/25 04:23:47;;;;;;;4.93;2.58;;;;;;;20.56;44.28;100524.94;5009346;28;20043;-73
2020/12/25 04:26:12;;;;;;;4.50;2.35;;;;;;;20.58;44.27;100525.78;4994128;28;20042;-75
2020/12/25 04:28:38;;;;;;;4.93;2.47;;;;;;;20.56;44.46;100530.19;4994186;28;20037;-74
2020/12/25 04:31:04;;;;;;;5.50;2.15;;;;;;;20.58;44.46;100538.06;4999375;28;20336;-75
2020/12/25 04:33:29;;;;;;;5.03;2.33;;;;;;;20.57;44.38;100539.84;4998455;28;20411;-75
2020/12/25 04:35:55;;;;;;;5.15;2.35;;;;;;;20.60;44.20;100541.53;5010393;28;20043;-74
2020/12/25 04:38:20;;;;;;;4.05;1.90;;;;;;;20.60;44.10;100547.69;5000648;28;20031;-76
2020/12/25 04:40:45;;;;;;;3.83;2.13;;;;;;;20.60;44.15;100552.97;4993896;28;20031;-73
2020/12/25 04:43:14;;;;;;;4.32;1.85;;;;;;;20.60;44.13;100550.31;4993814;28;20034;-73
2020/12/25 04:45:39;;;;;;;4.05;1.95;;;;;;;20.63;44.12;100557.28;5008312;28;20072;-76
2020/12/25 04:48:06;;;;;;;4.28;1.98;;;;;;;20.63;44.09;100555.50;5011582;28;20030;-77
2020/12/25 04:50:31;;;;;;;5.45;2.03;;;;;;;20.64;43.97;100554.63;5013258;28;20037;-73
2020/12/25 04:52:59;;;;;;;3.78;1.95;;;;;;;20.61;44.01;100559.97;4997000;28;20035;-75
2020/12/25 04:55:24;;;;;;;4.55;2.28;;;;;;;20.63;44.13;100566.03;4993674;28;20097;-74
2020/12/25 04:57:50;;;;;;;4.05;1.58;;;;;;;20.64;44.21;100565.16;4993458;28;20046;-74
2020/12/25 05:00:20;;;;;;;3.03;1.60;;;;;;;20.65;43.95;100573.94;4993216;28;20443;-73
2020/12/25 05:02:51;;;;;;;5.57;2.10;;;;;;;20.63;44.18;100576.56;4993026;28;20049;-74
2020/12/25 05:05:17;;;;;;;2.92;1.73;;;;;;;20.64;43.89;100578.31;4993379;28;20411;-73
2020/12/25 05:07:46;;;;;;;5.78;1.83;;;;;;;20.64;43.83;100565.16;4991666;28;20165;-74
2020/12/25 05:10:12;;;;;;;3.55;1.67;;;;;;;20.64;43.84;100573.06;4993249;28;20518;-74
2020/12/25 05:12:39;;;;;;;3.60;1.95;;;;;;;20.65;43.86;100573.94;4993507;28;20038;-74
2020/12/25 05:15:10;;;;;;;4.75;1.83;;;;;;;20.58;43.86;100575.81;4993218;28;20113;-74
2020/12/25 05:17:36;;;;;;;5.88;2.15;;;;;;;20.56;43.90;100576.72;4992916;28;20080;-74
2020/12/25 05:20:03;;;;;;;4.32;2.10;;;;;;;20.51;44.16;100582.06;4992388;28;20098;-73
2020/12/25 05:22:29;;;;;;;5.70;1.80;;;;;;;20.51;44.16;100575.03;4993065;28;20034;-75
2020/12/25 05:25:00;;;;;;;5.00;1.70;;;;;;;20.48;44.14;100593.53;5006211;28;20049;-73
2020/12/25 05:27:27;;;;;;;3.53;1.55;;;;;;;20.48;44.06;100592.63;5012684;28;20076;-73
2020/12/25 05:29:57;;;;;;;3.60;1.52;;;;;;;20.46;44.05;100603.19;5012647;28;20458;-74
2020/12/25 05:32:27;;;;;;;5.70;1.85;;;;;;;20.46;44.27;100607.59;5012119;28;20032;-74
2020/12/25 05:34:54;;;;;;;4.60;1.73;;;;;;;20.46;44.33;100608.47;5012291;28;20038;-78
2020/12/25 05:37:19;;;;;;;3.47;1.63;;;;;;;20.46;44.20;100610.25;5011040;28;20392;-73
2020/12/25 05:39:44;;;;;;;5.88;2.10;;;;;;;20.46;44.07;100610.25;5012656;28;20038;-75
2020/12/25 05:42:10;;;;;;;4.70;1.80;;;;;;;20.44;44.03;100604.13;5012415;28;20065;-75
2020/12/25 05:44:46;;;;;;;3.80;1.42;;;;;;;20.42;44.25;100606.75;5006295;28;20106;-75
2020/12/25 05:47:17;;;;;;;4.80;1.63;;;;;;;20.44;43.96;100612.88;4991101;28;20132;-74
2020/12/25 05:49:43;;;;;;;4.88;1.50;;;;;;;20.44;43.77;100610.25;4992399;28;20046;-75
2020/12/25 05:52:10;;;;;;;5.10;2.10;;;;;;;20.47;44.14;100625.16;5002313;28;20108;-79
2020/12/25 05:54:35;;;;;;;2.47;1.23;;;;;;;20.44;43.97;100619.91;5011353;28;20436;-74
2020/12/25 05:57:03;;;;;;;5.00;1.48;;;;;;;20.45;43.76;100617.25;5011956;28;20069;-73
2020/12/25 05:59:30;;;;;;;3.08;1.40;;;;;;;20.46;43.79;100626.03;5011725;28;20029;-73
2020/12/25 06:02:04;;;;;;;2.30;1.08;;;;;;;20.47;43.82;100630.41;5011145;28;20040;-73
2020/12/25 06:04:32;;;;;;;3.20;1.20;;;;;;;20.52;43.84;100636.44;5012179;28;20076;-74
2020/12/25 06:06:58;;;;;;;3.67;1.60;;;;;;;20.55;43.69;100633.78;5011983;28;20499;-73
2020/12/25 06:09:31;;;;;;;3.17;1.38;;;;;;;20.55;43.75;100636.41;5010765;28;20037;-74
2020/12/25 06:11:57;;;;;;;4.65;1.40;;;;;;;20.58;43.61;100640.75;5012078;28;20042;-75
2020/12/25 06:14:23;;;;;;;2.25;1.20;;;;;;;20.56;43.63;100630.25;4999209;28;20104;-73
2020/12/25 06:17:10;;;;;;;2.92;1.58;;;;;;;20.54;43.81;100639.94;4992174;28;20435;-73
2020/12/25 06:19:58;;;;;;;2.97;1.20;;;;;;;20.53;43.73;100640.81;4991915;28;20470;-73
2020/12/25 06:22:42;;;;;;;6.38;1.05;;;;;;;20.54;43.72;100643.44;4991221;28;20074;-73
2020/12/25 06:25:15;;;;;;;2.72;1.52;;;;;;;20.54;43.46;100647.84;5007054;28;20113;-80
2020/12/25 06:28:01;;;;;;;2.35;1.20;;;;;;;20.53;43.78;100644.34;5011938;28;20041;-74
2020/12/25 06:30:32;;;;;;;4.82;1.40;;;;;;;20.53;43.46;100646.09;5011239;28;20046;-73
2020/12/25 06:32:58;;;;;;;2.45;1.33;;;;;;;20.52;43.66;100641.72;5011695;28;20045;-73
2020/12/25 06:35:38;;;;;;;4.70;2.10;;;;;;;20.44;43.66;100647.09;5011529;28;20042;-80
2020/12/25 06:38:18;;;;;;;4.68;1.20;;;;;;;20.41;43.97;100651.56;5012122;28;20402;-74
2020/12/25 06:40:44;;;;;;;2.80;1.13;;;;;;;20.41;43.96;100659.44;5011350;28;20038;-74
2020/12/25 06:43:18;;;;;;;2.22;1.27;;;;;;;20.40;43.78;100658.56;5011755;28;20128;-74
2020/12/25 06:46:12;;;;;;;4.07;1.40;;;;;;;20.36;44.05;100665.66;5000426;28;20391;-74
2020/12/25 06:48:38;;;;;;;2.38;1.30;;;;;;;20.38;43.60;100663.88;4986517;28;20066;-75
2020/12/25 06:51:10;;;;;;;3.85;1.65;;;;;;;20.37;43.96;100675.28;5009699;28;20035;-74
2020/12/25 06:53:42;;;;;;;5.20;1.55;;;;;;;20.38;44.06;100678.81;5016336;28;20030;-75
2020/12/25 06:56:09;;;;;;;3.13;1.17;;;;;;;20.40;43.66;100684.88;5011620;28;20042;-75
2020/12/25 06:58:46;;;;;;;3.92;1.23;;;;;;;20.39;43.63;100694.56;5011187;28;20065;-75
2020/12/25 07:01:16;;;;;;;2.08;0.90;;;;;;;20.40;43.62;100698.03;5011158;28;20491;-75
2020/12/25 07:03:42;;;;;;;3.17;1.08;;;;;;;20.39;43.61;100706.88;5011615;28;20045;-75
2020/12/25 07:06:11;;;;;;;2.83;1.10;;;;;;;20.39;43.64;100712.97;5010990;28;20030;-77
2020/12/25 07:08:48;;;;;;;2.53;1.20;;;;;;;20.38;43.67;100713.03;5011501;28;20038;-80
2020/12/25 07:11:13;;;;;;;2.88;1.20;;;;;;;20.39;43.59;100722.66;5010682;28;20096;-75
2020/12/25 07:13:39;;;;;;;2.92;1.10;;;;;;;20.36;43.85;100713.03;5008203;28;20506;-73
2020/12/25 07:16:05;;;;;;;3.17;1.02;;;;;;;20.39;43.57;100715.63;4995489;28;20045;-74
2020/12/25 07:18:32;;;;;;;1.95;0.90;;;;;;;20.40;43.67;100719.09;4995005;28;20068;-73
2020/12/25 07:21:02;;;;;;;2.97;1.08;;;;;;;20.45;43.36;100716.44;5005380;28;20080;-74
2020/12/25 07:23:28;;;;;;;2.25;0.90;;;;;;;20.44;43.62;100715.53;5014972;28;20069;-73
2020/12/25 07:26:00;;;;;;;2.42;1.00;;;;;;;20.47;43.49;100722.53;5014922;28;20065;-75
2020/12/25 07:28:27;;;;;;;2.83;1.38;;;;;;;20.47;43.60;100714.66;5014663;28;20045;-76
2020/12/25 07:30:54;;;;;;;1.23;0.68;;;;;;;20.49;43.47;100718.09;5014616;28;20084;-73
2020/12/25 07:33:20;;;;;;;2.20;1.00;;;;;;;20.52;43.39;100725.97;5014814;28;20038;-74
2020/12/25 07:35:49;;;;;;;2.33;1.00;;;;;;;20.52;43.18;100725.97;5014113;28;20407;-76
2020/12/25 07:38:15;;;;;;;3.10;1.27;;;;;;;20.53;43.36;100731.22;5013212;28;20038;-73
2020/12/25 07:40:42;;;;;;;3.05;1.10;;;;;;;20.51;43.20;100733.00;5014684;28;20077;-73
2020/12/25 07:43:09;;;;;;;2.05;1.00;;;;;;;20.52;43.19;100744.41;5014237;28;20088;-73
2020/12/25 07:45:36;;;;;;;2.47;0.90;;;;;;;20.53;43.06;100740.88;5000703;28;20045;-74
2020/12/25 07:48:03;;;;;;;1.35;0.70;;;;;;;20.53;43.07;100740.88;4994650;28;20042;-73
2020/12/25 07:50:49;;;;;;;2.85;0.90;;;;;;;20.45;43.47;100733.09;4994661;28;20042;-72
2020/12/25 07:53:16;;;;;;;3.20;1.10;;;;;;;20.42;43.48;100733.13;5012964;28;20050;-73
2020/12/25 07:55:47;;;;;;;2.05;0.93;;;;;;;20.39;43.31;100744.56;5014012;28;20561;-75
2020/12/25 07:58:16;;;;;;;1.95;1.00;;;;;;;20.37;43.53;100741.09;5014095;28;20037;-76
2020/12/25 08:00:42;;;;;;;2.83;0.93;;;;;;;20.37;43.40;100743.72;5014107;28;20168;-72
2020/12/25 08:03:09;;;;;;;1.23;0.90;;;;;;;20.42;43.31;100743.66;5014417;28;20433;-78
2020/12/25 08:05:35;;;;;;;2.28;0.82;;;;;;;20.42;43.39;100742.78;5013209;28;20038;-76
2020/12/25 08:08:01;;;;;;;3.97;1.20;;;;;;;20.42;43.26;100753.31;5012047;28;20065;-79
2020/12/25 08:10:27;;;;;;;2.45;1.33;;;;;;;20.42;43.33;100754.19;5010297;28;20422;-81
2020/12/25 08:12:57;;;;;;;3.15;1.25;;;;;;;20.44;43.63;100746.28;4995447;28;20030;-79
2020/12/25 08:15:26;;;;;;;4.22;1.33;;;;;;;20.46;43.36;100755.03;4994323;28;20110;-77
2020/12/25 08:17:54;;;;;;;1.65;0.88;;;;;;;20.46;43.27;100757.66;4992788;28;20561;-76
2020/12/25 08:20:23;;;;;;;4.63;1.15;;;;;;;20.44;43.32;100762.94;4997075;28;20132;-76
2020/12/25 08:22:50;;;;;;;3.78;1.23;;;;;;;20.45;43.33;100759.41;5022824;28;20069;-74
2020/12/25 08:25:17;;;;;;;4.00;1.00;;;;;;;20.44;43.08;100757.66;5013554;28;20045;-74
2020/12/25 08:27:44;;;;;;;6.22;1.13;;;;;;;20.47;43.17;100756.78;5046438;28;20437;-75
2020/12/25 08:30:09;;;;;;;2.67;0.82;;;;;;;20.48;43.04;100754.09;5032312;28;20629;-76
2020/12/25 08:32:35;;;;;;;3.45;1.05;;;;;;;20.51;43.06;100754.06;5029723;28;20120;-73
2020/12/25 08:35:11;;;;;;;3.85;1.50;;;;;;;20.54;43.19;100755.78;5001272;28;20038;-75
2020/12/25 08:37:36;;;;;;;4.00;0.98;;;;;;;20.59;42.96;100755.72;5012165;28;20042;-74
2020/12/25 08:40:15;;;;;;;2.35;0.85;;;;;;;20.59;43.04;100764.50;5013382;28;20512;-75
2020/12/25 08:42:41;;;;;;;4.93;1.27;;;;;;;20.64;42.79;100764.41;5012231;28;20066;-74
2020/12/25 08:45:07;;;;;;;3.15;0.95;;;;;;;20.64;42.82;100764.41;5002214;28;20457;-79
2020/12/25 08:47:32;;;;;;;0.80;0.70;;;;;;;20.66;42.93;100765.28;5010031;28;20038;-76
2020/12/25 08:49:57;;;;;;;8.00;1.58;;;;;;;20.65;42.86;100774.91;4993519;28;20038;-74
2020/12/25 08:52:23;;;;;;;8.10;1.17;;;;;;;20.64;42.95;100770.53;5005684;28;20403;-73
2020/12/25 08:54:59;;;;;;;5.22;1.27;;;;;;;20.65;43.13;100782.81;5011943;28;20029;-76
2020/12/25 08:57:25;;;;;;;3.67;0.93;;;;;;;20.65;43.17;100788.09;5016924;28;20040;-76
2020/12/25 09:00:09;;;;;;;4.78;0.90;;;;;;;20.63;43.08;100787.22;5018515;28;20065;-75
2020/12/25 09:02:35;;;;;;;;;;;;;;;20.63;43.17;100794.28;5026282;28;20034;-76
2020/12/25 09:05:00;;;;;;;3.13;1.10;;;;;;;20.67;42.89;100794.22;5024449;28;19987;-77
2020/12/25 09:07:25;;;;;;;6.30;0.82;;;;;;;20.69;42.96;100797.69;5011377;28;20074;-74
2020/12/25 09:09:51;;;;;;;4.10;1.20;;;;;;;20.68;42.84;100795.94;5012853;28;20050;-74
2020/12/25 09:12:17;;;;;;;2.10;1.00;;;;;;;20.71;42.94;100802.06;5012483;28;20038;-78
2020/12/25 09:14:42;;;;;;;3.67;0.88;;;;;;;20.71;42.94;100799.44;4997519;28;20034;-74
2020/12/25 09:17:08;;;;;;;2.28;0.90;;;;;;;20.67;43.04;100804.75;5005373;28;20033;-78
2020/12/25 09:19:33;;;;;;;2.38;1.48;;;;;;;20.71;42.95;100796.81;5012487;28;20487;-79
2020/12/25 09:21:59;;;;;;;3.92;1.17;;;;;;;20.76;42.85;100800.28;4994142;28;20034;-76
2020/12/25 09:24:24;;;;;;;4.50;1.23;;;;;;;20.79;42.92;100806.38;5002092;28;20046;-74
2020/12/25 09:26:50;;;;;;;5.18;0.90;;;;;;;20.81;42.80;100806.34;5013063;28;20038;-77
2020/12/25 09:29:15;;;;;;;3.08;1.02;;;;;;;20.84;42.83;100794.03;5010032;28;20120;-73
2020/12/25 09:31:40;;;;;;;1.73;0.98;;;;;;;21.06;42.54;100801.56;5012834;28;20052;-77
2020/12/25 09:34:06;;;;;;;2.47;1.00;;;;;;;21.06;42.51;100804.22;5012356;28;20037;-74
2020/12/25 09:36:31;;;;;;;8.85;1.33;;;;;;;21.04;42.70;100802.50;5012890;28;20422;-72
2020/12/25 09:38:56;;;;;;;4.18;1.13;;;;;;;21.09;42.71;100803.31;5012404;28;20096;-78
2020/12/25 09:41:22;;;;;;;6.75;1.52;;;;;;;20.97;42.90;100814.91;5012709;28;20037;-76
2020/12/25 09:43:47;;;;;;;3.10;0.82;;;;;;;20.89;43.02;100817.66;5011438;28;20483;-76
2020/12/25 09:46:13;;;;;;;3.10;0.95;;;;;;;20.89;43.13;100811.50;4993547;28;20041;-78
2020/12/25 09:48:38;;;;;;;4.13;1.45;;;;;;;20.90;43.05;100819.41;4992608;28;20069;-73
2020/12/25 09:51:04;;;;;;;6.68;1.55;;;;;;;20.89;43.28;100832.56;4993670;28;20133;-76
2020/12/25 09:53:30;;;;;;;4.93;1.65;;;;;;;20.86;43.14;100827.38;5012571;28;20555;-77
2020/12/25 09:55:55;;;;;;;3.95;1.67;;;;;;;20.85;43.16;100829.13;5012699;28;20037;-80
2020/12/25 09:58:20;;;;;;;4.55;1.73;;;;;;;20.87;43.12;100834.34;5008281;28;20037;-78
2020/12/25 10:00:46;;;;;;;5.10;1.55;;;;;;;20.87;43.03;100837.88;5012291;28;20495;-74
2020/12/25 10:03:11;;;;;;;11.98;2.00;;;;;;;20.93;43.15;100847.44;5012638;28;20033;-73
2020/12/25 10:05:37;;;;;;;7.10;1.42;;;;;;;20.94;43.03;100847.41;5011111;28;20125;-78
2020/12/25 10:08:03;;;;;;;5.22;1.85;;;;;;;20.98;42.89;100833.31;5010912;28;20042;-79
2020/12/25 10:10:28;;;;;;;3.97;1.48;;;;;;;20.99;43.04;100837.69;5012875;28;20033;-76
2020/12/25 10:12:54;;;;;;;3.10;1.30;;;;;;;21.01;42.82;100834.16;5011778;28;20117;-78
2020/12/25 10:15:20;;;;;;;4.75;1.65;;;;;;;20.97;43.01;100830.72;5003412;28;20088;-76
2020/12/25 10:17:45;;;;;;;3.47;1.30;;;;;;;21.00;42.82;100825.41;5011919;28;20442;-74
2020/12/25 10:20:11;;;;;;;4.60;1.45;;;;;;;21.01;42.92;100827.16;4996686;28;20084;-73
2020/12/25 10:22:36;;;;;;;2.47;1.27;;;;;;;20.99;42.88;100827.16;5011998;28;20037;-77
2020/12/25 10:25:02;;;;;;;5.32;1.55;;;;;;;21.06;42.97;100829.72;5012321;28;20038;-77
2020/12/25 10:27:28;;;;;;;2.50;1.48;;;;;;;21.09;42.88;100834.94;5011185;28;20026;-74
2020/12/25 10:29:53;;;;;;;2.17;1.13;;;;;;;21.16;42.57;100835.72;5012567;28;20045;-73
2020/12/25 10:32:19;;;;;;;2.15;0.90;;;;;;;21.23;42.53;100839.97;5012268;28;20061;-73
2020/12/25 10:34:44;;;;;;;6.60;1.58;;;;;;;21.18;42.77;100833.94;5007595;28;20224;-74
2020/12/25 10:37:09;;;;;;;4.78;1.40;;;;;;;21.18;42.63;100831.28;5011154;28;20050;-76
2020/12/25 10:39:37;;;;;;;5.93;1.35;;;;;;;21.21;42.68;100845.28;5012650;28;20521;-73
2020/12/25 10:42:09;;;;;;;12.02;1.95;;;;;;;21.18;42.75;100847.09;4993451;28;20506;-75
2020/12/25 10:44:34;;;;;;;11.32;1.88;;;;;;;21.16;42.84;100846.25;4994370;28;20042;-73
2020/12/25 10:47:00;;;;;;;7.72;1.55;;;;;;;21.14;42.86;100841.88;4997251;28;20415;-73
2020/12/25 10:49:26;;;;;;;10.30;1.90;;;;;;;21.14;42.92;100841.00;4997148;28;20034;-75
2020/12/25 10:51:52;;;;;;;7.80;1.95;;;;;;;21.17;42.74;100843.59;4998082;28;20034;-74
2020/12/25 10:54:17;;;;;;;6.68;1.92;;;;;;;21.18;42.75;100852.38;5000217;28;20036;-73
2020/12/25 10:56:43;;;;;;;5.90;1.63;;;;;;;21.18;42.59;100844.47;4999470;28;20096;-73
2020/12/25 10:59:08;;;;;;;7.07;1.65;;;;;;;21.17;42.78;100851.50;4998659;28;20034;-73
2020/12/25 11:01:34;;;;;;;4.82;1.33;;;;;;;21.18;42.84;100845.31;4997298;28;20485;-77
2020/12/25 11:03:59;;;;;;;7.20;1.30;;;;;;;21.21;42.71;100841.75;4996295;28;20092;-79
2020/12/25 11:06:32;;;;;;;10.45;2.22;;;;;;;21.18;42.66;100842.69;4996348;28;20476;-75
2020/12/25 11:08:58;;;;;;;21.85;2.22;;;;;;;21.17;42.55;100834.81;4999704;28;20030;-72
2020/12/25 11:11:24;;;;;;;12.00;2.28;;;;;;;21.16;42.70;100840.97;5001484;28;20573;-77
2020/12/25 11:13:50;;;;;;;4.72;1.50;;;;;;;21.15;42.41;100834.81;5004480;28;20037;-77
2020/12/25 11:16:28;;;;;;;9.38;2.10;;;;;;;21.11;42.67;100834.00;4996620;28;20034;-77
2020/12/25 11:18:56;;;;;;;3.92;1.63;;;;;;;21.07;42.58;100834.09;4993983;28;20112;-77
2020/12/25 11:21:26;;;;;;;3.75;1.63;;;;;;;21.05;42.51;100838.50;4994749;28;20053;-79